Date,TemperatureHighF,TemperatureAvgF,TemperatureLowF,DewpointHighF,DewpointAvgF,DewpointLowF,HumidityHigh,HumidityAvg,HumidityLow,PressureMaxIn,PressureMinIn,WindSpeedMaxMPH,WindSpeedAvgMPH,GustSpeedMaxMPH,PrecipitationSumIn
2013-11-1,58,46,39,45,39,33,92,78,44,0.00,40.00,14,8,27,0.11
2013-11-2,58,45,34,41,34,-100,92,69,40,0.00,40.00,10,6,19,0.10
2013-11-3,56,49,39,38,33,30,73,56,39,0.00,40.00,18,12,37,0.00
2013-11-4,55,50,42,45,38,33,77,65,50,0.00,40.00,12,7,23,0.00
2013-11-5,44,40,34,42,36,32,93,85,72,0.00,40.00,13,8,26,0.95
2013-11-6,43,36,32,35,32,30,92,86,65,0.00,40.00,11,7,25,0.13
2013-11-7,47,38,30,33,27,21,92,70,40,0.00,40.00,11,6,19,0.00
2013-11-8,64,50,37,39,31,24,63,50,33,0.00,40.00,16,11,34,0.00
2013-11-9,60,49,41,36,32,-100,69,54,38,0.00,40.00,9,6,19,0.00
2013-11-10,54,45,33,34,28,25,80,55,32,0.00,40.00,10,6,20,0.00
2013-11-11,49,33,17,40,25,10,90,73,57,0.00,40.00,10,8,26,0.00
2013-11-12,35,21,8,13,9,5,92,63,33,0.00,40.00,8,5,13,0.00
2013-11-13,55,38,25,27,19,9,60,48,34,0.00,40.00,14,10,26,0.00
2013-11-14,54,43,36,35,28,23,63,55,43,0.00,40.00,11,6,25,0.00
2013-11-15,59,46,32,40,35,28,87,66,43,0.00,40.00,12,8,22,0.00
2013-11-16,65,53,44,54,41,-100,93,70,38,0.00,40.00,17,11,33,0.00
2013-11-17,53,46,39,44,37,27,82,70,44,0.00,40.00,11,7,20,0.04
2013-11-18,54,40,31,34,30,27,88,68,36,0.00,40.00,8,6,12,0.01
2013-11-19,61,49,37,32,27,23,69,44,28,0.00,40.00,15,11,27,0.00
2013-11-20,54,46,38,36,32,25,90,60,39,0.00,40.00,13,11,24,0.00
2013-11-21,38,28,20,35,25,18,92,88,78,0.00,40.00,13,9,25,0.00
2013-11-22,28,20,11,18,12,8,92,72,50,0.00,40.00,13,8,27,0.01
2013-11-23,22,16,10,13,4,-100,82,62,47,0.00,40.00,7,5,20,0.01
2013-11-24,32,20,10,15,9,3,81,64,46,0.00,40.00,11,8,20,0.00
2013-11-25,45,32,25,30,22,13,78,66,51,0.00,40.00,11,8,21,0.01
2013-11-26,30,25,16,24,16,7,87,68,43,0.00,40.00,16,10,28,0.01
2013-11-27,32,22,10,15,11,7,89,66,42,0.00,40.00,11,7,23,0.00
2013-11-28,34,27,21,21,17,15,85,68,49,0.00,40.00,12,8,24,0.00
2013-11-29,45,30,17,28,21,14,87,70,47,0.00,40.00,11,8,20,0.00
2013-11-30,55,41,31,32,26,-100,75,59,39,0.00,40.00,11,5,21,0.00